ROU1706 KLAS-CYUL
Flight info
| Callsign | ROU1706 |
|---|---|
| Flight time | 1h 22m |
| Altitude | 39000 |
| Route | GIDGT3 TUKRR DCT DVC DCT KD54U DCT KD66A DCT OBH DCT KP72G DCT DBQ DCT HOCKE DCT SIKBO Q951 SANIN DCT MIGLO HABBS7 |
| Aircraft | A20N/M-SDE2E3FGHIRWXY/LB1 |
Departure
| Time | 2026-05-03 20:42 |
|---|---|
| Airport | Harry Reid International Airport (KLAS) |
Arrival
| Time | 2026-05-03 22:05 |
|---|---|
| Airport | Montreal / Pierre Elliott Trudeau International Airport (CYUL) |
| Time | Latitude | Longitude | Altitude | Speed | Heading |
|---|---|---|---|---|---|
| 2026-05-03 20:29 | 36.08525 | -115.13675 | 2087 ft | 0 kts | 26° |
| 2026-05-03 20:35 | 36.08524 | -115.13676 | 2087 ft | 2 kts | 26° |
| 2026-05-03 20:35 | 36.08501 | -115.13691 | 2087 ft | 4 kts | 31° |
| 2026-05-03 20:35 | 36.08479 | -115.13710 | 2087 ft | 4 kts | 47° |
| 2026-05-03 20:35 | 36.08477 | -115.13712 | 2087 ft | 0 kts | 51° |
| 2026-05-03 20:37 | 36.08480 | -115.13705 | 2087 ft | 3 kts | 62° |
| 2026-05-03 20:37 | 36.08466 | -115.13678 | 2087 ft | 5 kts | 109° |
| 2026-05-03 20:37 | 36.08468 | -115.13592 | 2087 ft | 15 kts | 89° |
| 2026-05-03 20:38 | 36.08453 | -115.13434 | 2087 ft | 20 kts | 137° |
| 2026-05-03 20:38 | 36.08344 | -115.13303 | 2087 ft | 23 kts | 136° |
| 2026-05-03 20:38 | 36.08233 | -115.13280 | 2087 ft | 18 kts | 207° |
| 2026-05-03 20:38 | 36.08111 | -115.13288 | 2085 ft | 19 kts | 180° |
| 2026-05-03 20:39 | 36.07967 | -115.13287 | 2082 ft | 22 kts | 180° |
| 2026-05-03 20:39 | 36.07805 | -115.13288 | 2076 ft | 20 kts | 180° |
| 2026-05-03 20:39 | 36.07753 | -115.13211 | 2072 ft | 15 kts | 87° |
| 2026-05-03 20:39 | 36.07753 | -115.13057 | 2066 ft | 20 kts | 90° |
| 2026-05-03 20:40 | 36.07754 | -115.12863 | 2060 ft | 25 kts | 90° |
| 2026-05-03 20:40 | 36.07754 | -115.12628 | 2050 ft | 29 kts | 90° |
| 2026-05-03 20:40 | 36.07755 | -115.12366 | 2045 ft | 31 kts | 88° |
| 2026-05-03 20:40 | 36.07744 | -115.12142 | 2039 ft | 15 kts | 119° |
| 2026-05-03 20:41 | 36.07668 | -115.12117 | 2041 ft | 10 kts | 182° |
| 2026-05-03 20:41 | 36.07640 | -115.12173 | 2049 ft | 8 kts | 269° |
| 2026-05-03 20:41 | 36.07640 | -115.12289 | 2049 ft | 36 kts | 269° |
| 2026-05-03 20:41 | 36.07641 | -115.12897 | 2060 ft | 102 kts | 269° |
| 2026-05-03 20:42 | 36.07644 | -115.13996 | 2094 ft | 152 kts | 269° |
| 2026-05-03 20:42 | 36.07642 | -115.15322 | 2716 ft | 137 kts | 275° |
| 2026-05-03 20:42 | 36.07682 | -115.16576 | 3102 ft | 160 kts | 269° |
| 2026-05-03 20:42 | 36.07747 | -115.18103 | 3544 ft | 190 kts | 267° |
| 2026-05-03 20:43 | 36.07860 | -115.19771 | 4077 ft | 185 kts | 269° |
| 2026-05-03 20:43 | 36.08027 | -115.21252 | 4292 ft | 169 kts | 272° |
| 2026-05-03 20:43 | 36.08216 | -115.22697 | 4424 ft | 174 kts | 272° |
| 2026-05-03 20:43 | 36.08159 | -115.24777 | 4805 ft | 191 kts | 251° |
| 2026-05-03 20:44 | 36.08663 | -115.28307 | 5419 ft | 250 kts | 305° |
| 2026-05-03 20:44 | 36.11918 | -115.30139 | 6523 ft | 274 kts | 354° |
| 2026-05-03 20:44 | 36.15567 | -115.29018 | 7682 ft | 279 kts | 45° |
| 2026-05-03 20:44 | 36.17575 | -115.25078 | 9130 ft | 274 kts | 73° |
| 2026-05-03 20:45 | 36.18942 | -115.20637 | 10528 ft | 278 kts | 77° |
| 2026-05-03 20:45 | 36.19608 | -115.15946 | 11821 ft | 279 kts | 95° |
| 2026-05-03 20:45 | 36.19584 | -115.10762 | 12289 ft | 325 kts | 95° |
| 2026-05-03 20:45 | 36.19582 | -115.04850 | 13049 ft | 354 kts | 95° |
| 2026-05-03 20:46 | 36.19596 | -114.98679 | 14432 ft | 361 kts | 94° |
| 2026-05-03 20:46 | 36.19601 | -114.92393 | 15697 ft | 370 kts | 95° |
| 2026-05-03 20:46 | 36.19596 | -114.85941 | 16923 ft | 378 kts | 94° |
| 2026-05-03 20:46 | 36.19587 | -114.79336 | 18096 ft | 388 kts | 94° |
| 2026-05-03 20:47 | 36.19574 | -114.72574 | 19070 ft | 398 kts | 95° |
| 2026-05-03 20:47 | 36.19559 | -114.65641 | 20058 ft | 408 kts | 95° |
| 2026-05-03 20:47 | 36.19546 | -114.58535 | 21024 ft | 417 kts | 95° |
| 2026-05-03 20:47 | 36.19525 | -114.51274 | 21980 ft | 427 kts | 95° |
| 2026-05-03 20:48 | 36.19503 | -114.43851 | 22933 ft | 435 kts | 95° |
| 2026-05-03 20:48 | 36.19476 | -114.36272 | 23714 ft | 444 kts | 95° |
| 2026-05-03 20:48 | 36.19441 | -114.28534 | 24414 ft | 455 kts | 95° |
| 2026-05-03 20:48 | 36.19816 | -114.20622 | 25095 ft | 469 kts | 85° |
| 2026-05-03 20:49 | 36.20801 | -114.12555 | 25778 ft | 478 kts | 85° |
| 2026-05-03 20:49 | 36.21785 | -114.04328 | 26394 ft | 486 kts | 85° |
| 2026-05-03 20:49 | 36.22776 | -113.95976 | 27022 ft | 495 kts | 85° |
| 2026-05-03 20:49 | 36.23774 | -113.87475 | 27641 ft | 503 kts | 85° |
| 2026-05-03 20:50 | 36.24783 | -113.78838 | 28208 ft | 511 kts | 85° |
| 2026-05-03 20:50 | 36.25799 | -113.70100 | 29027 ft | 511 kts | 85° |
| 2026-05-03 20:50 | 36.27061 | -113.59156 | 29655 ft | 520 kts | 85° |
| 2026-05-03 20:50 | 36.29119 | -113.41107 | 30552 ft | 533 kts | 85° |
| 2026-05-03 20:51 | 36.31429 | -113.22751 | 31237 ft | 549 kts | 75° |
| 2026-05-03 20:51 | 36.37293 | -113.05280 | 32497 ft | 550 kts | 65° |
| 2026-05-03 20:51 | 36.43419 | -112.87787 | 33461 ft | 555 kts | 65° |
| 2026-05-03 20:51 | 36.49561 | -112.70171 | 34497 ft | 553 kts | 64° |
| 2026-05-03 20:52 | 36.55646 | -112.52625 | 35281 ft | 553 kts | 64° |
| 2026-05-03 20:52 | 36.61673 | -112.35138 | 36286 ft | 547 kts | 64° |
| 2026-05-03 20:52 | 36.67563 | -112.17955 | 36983 ft | 546 kts | 64° |
| 2026-05-03 20:52 | 36.73487 | -112.00572 | 37655 ft | 543 kts | 64° |
| 2026-05-03 20:53 | 36.79362 | -111.83236 | 38138 ft | 543 kts | 64° |
| 2026-05-03 20:53 | 36.85197 | -111.65913 | 38558 ft | 541 kts | 65° |
| 2026-05-03 20:53 | 36.91360 | -111.48983 | 39016 ft | 525 kts | 62° |
| 2026-05-03 20:54 | 37.03522 | -111.15530 | 38932 ft | 529 kts | 62° |
| 2026-05-03 20:54 | 37.21597 | -110.65023 | 38909 ft | 527 kts | 63° |
| 2026-05-03 20:55 | 37.33454 | -110.31428 | 38907 ft | 524 kts | 63° |
| 2026-05-03 20:55 | 37.45132 | -109.97972 | 38917 ft | 521 kts | 63° |
| 2026-05-03 20:56 | 37.56653 | -109.64585 | 39069 ft | 518 kts | 63° |
| 2026-05-03 20:56 | 37.68051 | -109.31186 | 39065 ft | 519 kts | 63° |
| 2026-05-03 20:57 | 37.79372 | -108.97633 | 39040 ft | 519 kts | 63° |
| 2026-05-03 20:57 | 37.92611 | -108.65451 | 39038 ft | 513 kts | 57° |
| 2026-05-03 20:58 | 38.05962 | -108.33652 | 39014 ft | 508 kts | 57° |
| 2026-05-03 20:58 | 38.19069 | -108.02126 | 39001 ft | 502 kts | 58° |
| 2026-05-03 20:59 | 38.31984 | -107.70748 | 38973 ft | 499 kts | 58° |
| 2026-05-03 20:59 | 38.44793 | -107.39311 | 39023 ft | 500 kts | 58° |
| 2026-05-03 21:00 | 38.55381 | -107.13082 | 39143 ft | 500 kts | 59° |
| 2026-05-03 21:00 | 38.70005 | -106.76487 | 38984 ft | 496 kts | 59° |
| 2026-05-03 21:01 | 38.82464 | -106.44951 | 39031 ft | 496 kts | 59° |
| 2026-05-03 21:01 | 38.94770 | -106.13489 | 39107 ft | 490 kts | 59° |
| 2026-05-03 21:02 | 39.00851 | -105.97819 | 38987 ft | 488 kts | 60° |
| 2026-05-03 21:02 | 39.06613 | -105.82038 | 38882 ft | 486 kts | 60° |
| 2026-05-03 21:02 | 39.18113 | -105.50583 | 38913 ft | 485 kts | 60° |
| 2026-05-03 21:03 | 39.29532 | -105.18993 | 38913 ft | 486 kts | 61° |
| 2026-05-03 21:03 | 39.40917 | -104.87140 | 39019 ft | 489 kts | 61° |
| 2026-05-03 21:04 | 39.52245 | -104.55104 | 38976 ft | 488 kts | 62° |
| 2026-05-03 21:04 | 39.63412 | -104.23173 | 38913 ft | 484 kts | 62° |
| 2026-05-03 21:05 | 39.74380 | -103.91463 | 38830 ft | 479 kts | 62° |
| 2026-05-03 21:05 | 39.85167 | -103.59933 | 38828 ft | 476 kts | 63° |
| 2026-05-03 21:06 | 39.95858 | -103.28333 | 38863 ft | 478 kts | 63° |
| 2026-05-03 21:06 | 40.06520 | -102.96462 | 38898 ft | 480 kts | 63° |
| 2026-05-03 21:07 | 40.17130 | -102.64382 | 38908 ft | 482 kts | 63° |
| 2026-05-03 21:07 | 40.27684 | -102.32098 | 38926 ft | 483 kts | 63° |
| 2026-05-03 21:08 | 40.38147 | -101.99719 | 38926 ft | 482 kts | 63° |
| 2026-05-03 21:08 | 40.48491 | -101.67332 | 38963 ft | 481 kts | 63° |
| 2026-05-03 21:09 | 40.58753 | -101.34815 | 38929 ft | 482 kts | 63° |
| 2026-05-03 21:09 | 40.68964 | -101.02069 | 38915 ft | 484 kts | 63° |
| 2026-05-03 21:10 | 40.79056 | -100.69309 | 38930 ft | 486 kts | 63° |
| 2026-05-03 21:10 | 40.89137 | -100.36178 | 38926 ft | 487 kts | 63° |
| 2026-05-03 21:11 | 40.99139 | -100.02950 | 38914 ft | 485 kts | 63° |
| 2026-05-03 21:11 | 41.07363 | -99.68686 | 38916 ft | 489 kts | 67° |
| 2026-05-03 21:12 | 41.15353 | -99.34200 | 38922 ft | 490 kts | 68° |
| 2026-05-03 21:12 | 41.23257 | -98.99553 | 38941 ft | 491 kts | 68° |
| 2026-05-03 21:13 | 41.31076 | -98.64737 | 38940 ft | 491 kts | 68° |
| 2026-05-03 21:13 | 41.38480 | -98.29733 | 38941 ft | 494 kts | 73° |
| 2026-05-03 21:14 | 41.44262 | -97.94055 | 38934 ft | 492 kts | 73° |
| 2026-05-03 21:14 | 41.49910 | -97.58350 | 38936 ft | 491 kts | 73° |
| 2026-05-03 21:15 | 41.55447 | -97.22587 | 38929 ft | 492 kts | 73° |
| 2026-05-03 21:15 | 41.60877 | -96.86737 | 38924 ft | 492 kts | 73° |
| 2026-05-03 21:16 | 41.66159 | -96.51076 | 38902 ft | 492 kts | 74° |
| 2026-05-03 21:16 | 41.71352 | -96.15204 | 38899 ft | 490 kts | 74° |
| 2026-05-03 21:17 | 41.75596 | -95.85257 | 38887 ft | 488 kts | 74° |
| 2026-05-03 21:17 | 41.81341 | -95.43744 | 38889 ft | 487 kts | 75° |
| 2026-05-03 21:18 | 41.86165 | -95.07964 | 38898 ft | 487 kts | 75° |
| 2026-05-03 21:18 | 41.90887 | -94.72058 | 38890 ft | 488 kts | 75° |
| 2026-05-03 21:19 | 41.95474 | -94.36282 | 38849 ft | 484 kts | 76° |
| 2026-05-03 21:19 | 41.99927 | -94.00720 | 38825 ft | 481 kts | 76° |
| 2026-05-03 21:20 | 42.03899 | -93.71329 | 38826 ft | 481 kts | 75° |
| 2026-05-03 21:20 | 42.08613 | -93.35842 | 38830 ft | 483 kts | 75° |
| 2026-05-03 21:21 | 42.13240 | -93.00129 | 38838 ft | 485 kts | 76° |
| 2026-05-03 21:21 | 42.17761 | -92.64314 | 38838 ft | 485 kts | 76° |
| 2026-05-03 21:22 | 42.22154 | -92.28586 | 38805 ft | 481 kts | 76° |
| 2026-05-03 21:22 | 42.26406 | -91.93066 | 38773 ft | 478 kts | 76° |
| 2026-05-03 21:23 | 42.30538 | -91.57593 | 38750 ft | 478 kts | 77° |
| 2026-05-03 21:23 | 42.34579 | -91.21895 | 38767 ft | 482 kts | 77° |
| 2026-05-03 21:24 | 42.38531 | -90.85961 | 38778 ft | 484 kts | 77° |
| 2026-05-03 21:24 | 42.43106 | -90.50069 | 38787 ft | 483 kts | 75° |
| 2026-05-03 21:25 | 42.48163 | -90.14338 | 38773 ft | 483 kts | 75° |
| 2026-05-03 21:25 | 42.53074 | -89.78583 | 38768 ft | 482 kts | 75° |
| 2026-05-03 21:26 | 42.57872 | -89.42772 | 38774 ft | 483 kts | 76° |
| 2026-05-03 21:26 | 42.62569 | -89.06828 | 38805 ft | 484 kts | 76° |
| 2026-05-03 21:27 | 42.67164 | -88.70751 | 38807 ft | 485 kts | 76° |
| 2026-05-03 21:27 | 42.71647 | -88.34613 | 38780 ft | 485 kts | 77° |
| 2026-05-03 21:28 | 42.76018 | -87.98410 | 38813 ft | 485 kts | 77° |
| 2026-05-03 21:28 | 42.80277 | -87.62124 | 38816 ft | 486 kts | 78° |
| 2026-05-03 21:29 | 42.84423 | -87.25782 | 38813 ft | 486 kts | 78° |
| 2026-05-03 21:29 | 42.88456 | -86.89365 | 38833 ft | 486 kts | 78° |
| 2026-05-03 21:30 | 42.92377 | -86.52872 | 38864 ft | 486 kts | 79° |
| 2026-05-03 21:30 | 42.96188 | -86.16280 | 38898 ft | 488 kts | 79° |
| 2026-05-03 21:31 | 42.99867 | -85.79794 | 38898 ft | 489 kts | 79° |
| 2026-05-03 21:31 | 43.03460 | -85.42952 | 38906 ft | 489 kts | 79° |
| 2026-05-03 21:32 | 43.06940 | -85.06006 | 38890 ft | 490 kts | 80° |
| 2026-05-03 21:32 | 43.10298 | -84.69058 | 38867 ft | 489 kts | 81° |
| 2026-05-03 21:33 | 43.13533 | -84.32112 | 38869 ft | 488 kts | 81° |
| 2026-05-03 21:33 | 43.16644 | -83.95184 | 38859 ft | 487 kts | 81° |
| 2026-05-03 21:34 | 43.19632 | -83.58278 | 38850 ft | 488 kts | 82° |
| 2026-05-03 21:34 | 43.22506 | -83.21274 | 38849 ft | 488 kts | 82° |
| 2026-05-03 21:35 | 43.25278 | -82.84198 | 38838 ft | 488 kts | 83° |
| 2026-05-03 21:35 | 43.29255 | -82.47711 | 38842 ft | 486 kts | 78° |
| 2026-05-03 21:36 | 43.33955 | -82.11122 | 38830 ft | 487 kts | 78° |
| 2026-05-03 21:36 | 43.38527 | -81.74457 | 38868 ft | 487 kts | 79° |
| 2026-05-03 21:37 | 43.42985 | -81.37706 | 38873 ft | 487 kts | 79° |
| 2026-05-03 21:37 | 43.47326 | -81.00901 | 38876 ft | 487 kts | 79° |
| 2026-05-03 21:38 | 43.51549 | -80.64042 | 38887 ft | 487 kts | 79° |
| 2026-05-03 21:38 | 43.55654 | -80.27126 | 38852 ft | 487 kts | 80° |
| 2026-05-03 21:39 | 43.59640 | -79.90157 | 38861 ft | 487 kts | 80° |
| 2026-05-03 21:39 | 43.63504 | -79.53171 | 38860 ft | 486 kts | 81° |
| 2026-05-03 21:40 | 43.69491 | -79.17020 | 38849 ft | 482 kts | 70° |
| 2026-05-03 21:40 | 43.77549 | -78.81624 | 38852 ft | 482 kts | 71° |
| 2026-05-03 21:41 | 43.85496 | -78.46142 | 38884 ft | 483 kts | 71° |
| 2026-05-03 21:41 | 43.93333 | -78.10559 | 38875 ft | 482 kts | 71° |
| 2026-05-03 21:42 | 44.01047 | -77.74941 | 38861 ft | 481 kts | 72° |
| 2026-05-03 21:42 | 44.09506 | -77.39775 | 38846 ft | 477 kts | 58° |
| 2026-05-03 21:43 | 44.23828 | -77.08659 | 38876 ft | 477 kts | 55° |
| 2026-05-03 21:43 | 44.38106 | -76.77512 | 38882 ft | 476 kts | 56° |
| 2026-05-03 21:44 | 44.52268 | -76.46280 | 38882 ft | 475 kts | 56° |
| 2026-05-03 21:44 | 44.65588 | -76.14245 | 38876 ft | 478 kts | 66° |
| 2026-05-03 21:45 | 44.75331 | -75.79550 | 38864 ft | 477 kts | 69° |
| 2026-05-03 21:45 | 44.84577 | -75.44559 | 38866 ft | 476 kts | 68° |
| 2026-05-03 21:46 | 44.89418 | -75.27558 | 38124 ft | 471 kts | 67° |
| 2026-05-03 21:46 | 44.94235 | -75.10413 | 35417 ft | 470 kts | 66° |
| 2026-05-03 21:46 | 44.99196 | -74.93387 | 32961 ft | 461 kts | 58° |
| 2026-05-03 21:46 | 45.05568 | -74.77424 | 32842 ft | 468 kts | 58° |
| 2026-05-03 21:47 | 45.11922 | -74.61370 | 32373 ft | 463 kts | 58° |
| 2026-05-03 21:47 | 45.18609 | -74.46065 | 29960 ft | 449 kts | 54° |
| 2026-05-03 21:47 | 45.25011 | -74.31354 | 27486 ft | 430 kts | 54° |
| 2026-05-03 21:47 | 45.31137 | -74.17124 | 25027 ft | 415 kts | 54° |
| 2026-05-03 21:48 | 45.37023 | -74.04505 | 22788 ft | 396 kts | 41° |
| 2026-05-03 21:48 | 45.40608 | -73.99761 | 21651 ft | 387 kts | 37° |
| 2026-05-03 21:48 | 45.42607 | -73.97168 | 20825 ft | 390 kts | 38° |
| 2026-05-03 21:48 | 45.44604 | -73.94565 | 20182 ft | 388 kts | 38° |
| 2026-05-03 21:49 | 45.46583 | -73.91980 | 19584 ft | 385 kts | 38° |
| 2026-05-03 21:49 | 45.48551 | -73.89409 | 18991 ft | 382 kts | 38° |
| 2026-05-03 21:49 | 45.50494 | -73.86869 | 18602 ft | 374 kts | 38° |
| 2026-05-03 21:49 | 45.52369 | -73.84411 | 18452 ft | 359 kts | 38° |
| 2026-05-03 21:50 | 45.54172 | -73.82046 | 18319 ft | 345 kts | 38° |
| 2026-05-03 21:50 | 45.55904 | -73.79775 | 18200 ft | 332 kts | 38° |
| 2026-05-03 21:50 | 45.57570 | -73.77590 | 18083 ft | 319 kts | 38° |
| 2026-05-03 21:50 | 45.59176 | -73.75484 | 17897 ft | 309 kts | 37° |
| 2026-05-03 21:51 | 45.60756 | -73.73414 | 17395 ft | 309 kts | 37° |
| 2026-05-03 21:51 | 45.62348 | -73.71332 | 16854 ft | 311 kts | 37° |
| 2026-05-03 21:51 | 45.63948 | -73.69234 | 16321 ft | 313 kts | 38° |
| 2026-05-03 21:51 | 45.65553 | -73.67126 | 15797 ft | 314 kts | 38° |
| 2026-05-03 21:52 | 45.67140 | -73.65038 | 15292 ft | 315 kts | 38° |
| 2026-05-03 21:52 | 45.68781 | -73.62875 | 14773 ft | 316 kts | 38° |
| 2026-05-03 21:52 | 45.70380 | -73.60766 | 14284 ft | 317 kts | 38° |
| 2026-05-03 21:52 | 45.72000 | -73.58623 | 13802 ft | 318 kts | 38° |
| 2026-05-03 21:53 | 45.73629 | -73.56417 | 13263 ft | 318 kts | 39° |
| 2026-05-03 21:53 | 45.75198 | -73.54270 | 12727 ft | 318 kts | 39° |
| 2026-05-03 21:53 | 45.76801 | -73.52078 | 12183 ft | 318 kts | 39° |
| 2026-05-03 21:53 | 45.78401 | -73.49900 | 11672 ft | 318 kts | 39° |
| 2026-05-03 21:54 | 45.80006 | -73.47718 | 11153 ft | 317 kts | 39° |
| 2026-05-03 21:54 | 45.81608 | -73.45542 | 10642 ft | 317 kts | 40° |
| 2026-05-03 21:54 | 45.83205 | -73.43374 | 10140 ft | 316 kts | 40° |
| 2026-05-03 21:54 | 45.84799 | -73.41208 | 9635 ft | 315 kts | 40° |
| 2026-05-03 21:55 | 45.86388 | -73.39046 | 9086 ft | 315 kts | 40° |
| 2026-05-03 21:55 | 45.87972 | -73.36884 | 8544 ft | 314 kts | 41° |
| 2026-05-03 21:55 | 45.89231 | -73.34322 | 8007 ft | 318 kts | 65° |
| 2026-05-03 21:55 | 45.89691 | -73.31227 | 7489 ft | 320 kts | 89° |
| 2026-05-03 21:56 | 45.89266 | -73.28124 | 6969 ft | 318 kts | 114° |
| 2026-05-03 21:56 | 45.88028 | -73.25535 | 6469 ft | 314 kts | 139° |
| 2026-05-03 21:56 | 45.86206 | -73.23912 | 5946 ft | 307 kts | 163° |
| 2026-05-03 21:56 | 45.84131 | -73.23506 | 5365 ft | 301 kts | 188° |
| 2026-05-03 21:57 | 45.82139 | -73.24346 | 4592 ft | 301 kts | 212° |
| 2026-05-03 21:57 | 45.80477 | -73.26157 | 3804 ft | 303 kts | 228° |
| 2026-05-03 21:57 | 45.79165 | -73.28512 | 3211 ft | 300 kts | 234° |
| 2026-05-03 21:57 | 45.77878 | -73.30793 | 3007 ft | 287 kts | 232° |
| 2026-05-03 21:58 | 45.76600 | -73.32885 | 2949 ft | 270 kts | 231° |
| 2026-05-03 21:58 | 45.75385 | -73.34811 | 2951 ft | 252 kts | 230° |
| 2026-05-03 21:58 | 45.74224 | -73.36638 | 2954 ft | 250 kts | 230° |
| 2026-05-03 21:58 | 45.73058 | -73.38476 | 2955 ft | 248 kts | 230° |
| 2026-05-03 21:59 | 45.71897 | -73.40309 | 2954 ft | 250 kts | 231° |
| 2026-05-03 21:59 | 45.70737 | -73.42145 | 2961 ft | 249 kts | 230° |
| 2026-05-03 21:59 | 45.69577 | -73.43979 | 2948 ft | 248 kts | 230° |
| 2026-05-03 21:59 | 45.68421 | -73.45807 | 2947 ft | 248 kts | 230° |
| 2026-05-03 22:00 | 45.66489 | -73.48859 | 2941 ft | 239 kts | 230° |
| 2026-05-03 22:00 | 45.64425 | -73.52101 | 2943 ft | 209 kts | 231° |
| 2026-05-03 22:00 | 45.62461 | -73.55026 | 2941 ft | 203 kts | 225° |
| 2026-05-03 22:00 | 45.60365 | -73.57644 | 2941 ft | 188 kts | 225° |
| 2026-05-03 22:01 | 45.58554 | -73.59998 | 2972 ft | 185 kts | 227° |
| 2026-05-03 22:01 | 45.57642 | -73.61215 | 2954 ft | 175 kts | 227° |
| 2026-05-03 22:01 | 45.56814 | -73.62323 | 2956 ft | 149 kts | 227° |
| 2026-05-03 22:01 | 45.56097 | -73.63280 | 2954 ft | 140 kts | 228° |
| 2026-05-03 22:02 | 45.55384 | -73.64249 | 2872 ft | 145 kts | 228° |
| 2026-05-03 22:02 | 45.54649 | -73.65219 | 2471 ft | 141 kts | 227° |
| 2026-05-03 22:02 | 45.53928 | -73.66172 | 2025 ft | 141 kts | 229° |
| 2026-05-03 22:02 | 45.53252 | -73.67139 | 1671 ft | 133 kts | 229° |
| 2026-05-03 22:03 | 45.52554 | -73.68076 | 1252 ft | 137 kts | 227° |
| 2026-05-03 22:03 | 45.51863 | -73.68990 | 1013 ft | 139 kts | 227° |
| 2026-05-03 22:03 | 45.51187 | -73.69897 | 810 ft | 136 kts | 225° |
| 2026-05-03 22:03 | 45.50457 | -73.70783 | 761 ft | 137 kts | 225° |
| 2026-05-03 22:04 | 45.49763 | -73.71723 | 625 ft | 142 kts | 229° |
| 2026-05-03 22:04 | 45.49056 | -73.72622 | 415 ft | 135 kts | 227° |
| 2026-05-03 22:04 | 45.48371 | -73.73528 | 214 ft | 133 kts | 227° |
| 2026-05-03 22:04 | 45.47709 | -73.74407 | 121 ft | 122 kts | 227° |
| 2026-05-03 22:05 | 45.47231 | -73.75033 | 116 ft | 52 kts | 221° |
| 2026-05-03 22:05 | 45.47073 | -73.75242 | 114 ft | 30 kts | 224° |
| 2026-05-03 22:05 | 45.46898 | -73.75469 | 113 ft | 38 kts | 220° |
| 2026-05-03 22:05 | 45.46658 | -73.75614 | 115 ft | 32 kts | 193° |
| 2026-05-03 22:06 | 45.46466 | -73.75674 | 114 ft | 22 kts | 193° |
| 2026-05-03 22:06 | 45.46354 | -73.75713 | 116 ft | 9 kts | 195° |
| 2026-05-03 22:06 | 45.46281 | -73.75730 | 115 ft | 12 kts | 171° |
| 2026-05-03 22:06 | 45.46172 | -73.75724 | 115 ft | 19 kts | 179° |
| 2026-05-03 22:07 | 45.46129 | -73.75787 | 113 ft | 10 kts | 269° |
| 2026-05-03 22:07 | 45.46126 | -73.75903 | 114 ft | 14 kts | 266° |
| 2026-05-03 22:07 | 45.46039 | -73.75958 | 112 ft | 18 kts | 177° |
| 2026-05-03 22:07 | 45.45903 | -73.75951 | 114 ft | 16 kts | 172° |
| 2026-05-03 22:08 | 45.45788 | -73.75898 | 115 ft | 19 kts | 132° |
| 2026-05-03 22:08 | 45.45725 | -73.75763 | 113 ft | 14 kts | 92° |
| 2026-05-03 22:08 | 45.45746 | -73.75611 | 113 ft | 18 kts | 72° |
| 2026-05-03 22:08 | 45.45762 | -73.75515 | 115 ft | 14 kts | 92° |
| 2026-05-03 22:09 | 45.45712 | -73.75477 | 114 ft | 8 kts | 201° |
| 2026-05-03 22:09 | 45.45697 | -73.75486 | 114 ft | 0 kts | 204° |
| 2026-05-03 22:09 | 45.45694 | -73.75487 | 113 ft | 1 kts | 198° |
| 2026-05-03 22:10 | 45.45666 | -73.75436 | 112 ft | 6 kts | 118° |
| 2026-05-03 22:10 | 45.45662 | -73.75425 | 116 ft | 0 kts | 118° |